createdAt,value
2018-12-31T00:02:20.533Z,102109.14
2018-12-31T00:04:54.154Z,102104.42
2018-12-31T00:07:27.752Z,102110.36
2018-12-31T00:10:01.444Z,102111.20
2018-12-31T00:12:34.970Z,102103.55
2018-12-31T00:15:08.563Z,102105.30
2018-12-31T00:17:42.140Z,102106.12
2018-12-31T00:20:15.796Z,102115.91
2018-12-31T00:22:49.416Z,102114.64
2018-12-31T00:25:22.978Z,102108.23
2018-12-31T00:27:56.491Z,102105.25
2018-12-31T00:30:30.101Z,102103.55
2018-12-31T00:33:03.618Z,102095.86
2018-12-31T00:35:37.266Z,102093.73
2018-12-31T00:38:10.773Z,102094.04
2018-12-31T00:40:44.401Z,102093.19
2018-12-31T00:43:17.924Z,102092.86
2018-12-31T00:45:51.582Z,102091.55
2018-12-31T00:48:25.139Z,102097.47
2018-12-31T00:50:58.777Z,102093.23
2018-12-31T00:53:32.349Z,102093.27
2018-12-31T00:56:05.891Z,102101.34
2018-12-31T00:58:39.488Z,102106.07
2018-12-31T01:01:13.040Z,102114.17
2018-12-31T01:03:46.554Z,102121.73
2018-12-31T01:06:20.108Z,102133.23
2018-12-31T01:08:53.627Z,102141.80
2018-12-31T01:11:27.252Z,102148.66
2018-12-31T01:14:00.767Z,102144.41
2018-12-31T01:16:34.410Z,102148.18
2018-12-31T01:19:07.939Z,102149.03
2018-12-31T01:21:41.476Z,102149.91
2018-12-31T01:24:14.912Z,102154.55
2018-12-31T01:26:48.382Z,102154.55
2018-12-31T01:29:21.898Z,102145.63
2018-12-31T01:31:55.519Z,102140.08
2018-12-31T01:34:29.040Z,102124.78
2018-12-31T01:37:02.669Z,102129.05
2018-12-31T01:39:36.197Z,102123.00
2018-12-31T01:42:09.811Z,102119.20
2018-12-31T01:44:43.328Z,102116.64
2018-12-31T01:47:16.880Z,102120.06
2018-12-31T01:49:50.462Z,102128.48
2018-12-31T01:52:23.930Z,102142.50
2018-12-31T01:54:57.459Z,102140.78
2018-12-31T01:57:31.184Z,102133.98
2018-12-31T02:00:05.711Z,102140.86
2018-12-31T02:02:39.208Z,102143.41
2018-12-31T02:05:12.719Z,102148.04
2018-12-31T02:07:46.359Z,102143.41
2018-12-31T02:10:19.998Z,102142.20
2018-12-31T02:12:53.636Z,102137.97
2018-12-31T02:15:27.084Z,102134.13
2018-12-31T02:18:00.759Z,102128.18
2018-12-31T02:20:34.264Z,102139.67
2018-12-31T02:23:07.960Z,102142.63
2018-12-31T02:25:41.461Z,102160.13
2018-12-31T02:28:15.010Z,102143.97
2018-12-31T02:30:48.808Z,102138.45
2018-12-31T02:33:22.363Z,102130.84
2018-12-31T02:35:55.869Z,102123.17
2018-12-31T02:38:29.416Z,102121.88
2018-12-31T02:41:02.991Z,102122.34
2018-12-31T02:43:36.617Z,102122.34
2018-12-31T02:46:10.131Z,102113.83
2018-12-31T02:48:43.808Z,102115.95
2018-12-31T02:51:17.306Z,102118.52
2018-12-31T02:53:50.779Z,102127.45
2018-12-31T02:56:24.289Z,102122.80
2018-12-31T02:58:57.940Z,102127.92
2018-12-31T03:01:31.450Z,102126.22
2018-12-31T03:04:05.082Z,102129.20
2018-12-31T03:06:38.596Z,102125.31
2018-12-31T03:09:12.149Z,102134.23
2018-12-31T03:11:45.681Z,102142.73
2018-12-31T03:14:19.222Z,102127.01
2018-12-31T03:16:52.721Z,102124.89
2018-12-31T03:19:26.356Z,102124.46
2018-12-31T03:21:59.786Z,102123.61
2018-12-31T03:24:33.347Z,102135.12
2018-12-31T03:27:07.818Z,102132.11
2018-12-31T03:29:41.358Z,102124.89
2018-12-31T03:32:14.890Z,102125.36
2018-12-31T03:34:48.340Z,102129.59
2018-12-31T03:37:21.975Z,102129.50
2018-12-31T03:39:55.536Z,102127.84
2018-12-31T03:42:28.973Z,102122.30
2018-12-31T03:45:02.601Z,102101.86
2018-12-31T03:47:36.173Z,102111.25
2018-12-31T03:50:18.006Z,102125.73
2018-12-31T03:52:51.527Z,102122.76
2018-12-31T03:55:25.090Z,102116.81
2018-12-31T03:57:58.591Z,102116.81
2018-12-31T04:00:32.290Z,102111.72
2018-12-31T04:03:05.800Z,102119.78
2018-12-31T04:05:39.435Z,102121.45
2018-12-31T04:08:13.062Z,102115.53
2018-12-31T04:10:46.620Z,102112.14
2018-12-31T04:13:20.138Z,102113.84
2018-12-31T04:15:53.703Z,102115.11
2018-12-31T04:18:27.200Z,102125.74
2018-12-31T04:21:00.748Z,102132.95
2018-12-31T04:23:34.196Z,102131.72
2018-12-31T04:26:07.660Z,102136.42
2018-12-31T04:28:41.203Z,102140.27
2018-12-31T04:31:14.768Z,102142.84
2018-12-31T04:33:48.280Z,102143.28
2018-12-31T04:36:21.917Z,102140.75
2018-12-31T04:38:55.353Z,102141.17
2018-12-31T04:41:28.895Z,102144.12
2018-12-31T04:44:02.468Z,102142.88
2018-12-31T04:46:36.028Z,102142.45
2018-12-31T04:49:09.646Z,102152.25
2018-12-31T04:51:43.202Z,102140.32
2018-12-31T04:54:16.706Z,102139.04
2018-12-31T04:56:50.319Z,102139.90
2018-12-31T04:59:23.768Z,102136.06
2018-12-31T05:01:57.371Z,102139.02
2018-12-31T05:04:30.948Z,102140.32
2018-12-31T05:07:04.491Z,102136.06
2018-12-31T05:09:37.999Z,102141.58
2018-12-31T05:12:11.824Z,102141.58
2018-12-31T05:14:45.362Z,102141.56
2018-12-31T05:17:18.903Z,102140.28
2018-12-31T05:19:52.357Z,102139.42
2018-12-31T05:22:25.912Z,102136.03
2018-12-31T05:24:59.523Z,102141.13
2018-12-31T05:27:33.113Z,102139.41
2018-12-31T05:30:06.682Z,102141.97
2018-12-31T05:32:40.248Z,102148.37
2018-12-31T05:35:13.678Z,102151.38
2018-12-31T05:37:47.312Z,102154.33
2018-12-31T05:40:20.814Z,102157.73
2018-12-31T05:42:54.276Z,102153.92
2018-12-31T05:45:27.785Z,102154.73
2018-12-31T05:48:01.331Z,102158.59
2018-12-31T05:50:34.840Z,102158.60
2018-12-31T05:53:08.468Z,102162.86
2018-12-31T05:55:41.976Z,102166.27
2018-12-31T05:58:15.550Z,102167.09
2018-12-31T06:00:48.970Z,102161.59
2018-12-31T06:03:22.642Z,102155.61
2018-12-31T06:05:56.223Z,102162.45
2018-12-31T06:08:29.775Z,102165.41
2018-12-31T06:11:03.314Z,102169.23
2018-12-31T06:13:36.869Z,102171.34
2018-12-31T06:16:10.385Z,102178.61
2018-12-31T06:18:44.021Z,102176.91
2018-12-31T06:21:17.600Z,102176.41
2018-12-31T06:23:51.175Z,102171.74
2018-12-31T06:26:24.683Z,102176.87
2018-12-31T06:28:58.217Z,102165.39
2018-12-31T06:31:31.741Z,102166.25
2018-12-31T06:34:05.383Z,102173.05
2018-12-31T06:36:38.996Z,102178.58
2018-12-31T06:39:12.709Z,102181.98
2018-12-31T06:41:46.220Z,102186.23
2018-12-31T06:44:19.754Z,102187.95
2018-12-31T06:46:53.323Z,102183.68
2018-12-31T06:49:26.962Z,102178.17
2018-12-31T06:52:00.539Z,102176.03
2018-12-31T06:54:34.190Z,102179.44
2018-12-31T06:57:07.764Z,102184.12
2018-12-31T06:59:41.359Z,102184.12
2018-12-31T07:02:14.880Z,102187.97
2018-12-31T07:04:48.368Z,102201.14
2018-12-31T07:07:21.806Z,102200.27
2018-12-31T07:09:55.429Z,102206.20
2018-12-31T07:12:29.003Z,102204.95
2018-12-31T07:15:02.654Z,102213.89
2018-12-31T07:17:36.112Z,102213.92
2018-12-31T07:20:09.762Z,102216.05
2018-12-31T07:22:43.314Z,102222.46
2018-12-31T07:25:16.793Z,102225.86
2018-12-31T07:27:50.371Z,102229.27
2018-12-31T07:30:23.933Z,102235.69
2018-12-31T07:32:57.472Z,102233.98
2018-12-31T07:35:31.144Z,102230.14
2018-12-31T07:38:04.607Z,102232.27
2018-12-31T07:40:38.074Z,102230.14
2018-12-31T07:43:11.589Z,102233.55
2018-12-31T07:45:45.149Z,102232.27
2018-12-31T07:48:18.658Z,102238.66
2018-12-31T07:50:52.201Z,102243.34
2018-12-31T07:53:25.709Z,102245.08
2018-12-31T07:55:59.252Z,102245.93
2018-12-31T07:58:32.677Z,102252.34
2018-12-31T08:01:06.211Z,102257.02
2018-12-31T08:03:39.655Z,102262.98
2018-12-31T08:06:13.194Z,102252.77
2018-12-31T08:08:46.646Z,102257.05
2018-12-31T08:11:20.209Z,102256.63
2018-12-31T08:13:53.718Z,102253.63
2018-12-31T08:16:27.258Z,102253.23
2018-12-31T08:19:00.789Z,102254.48
2018-12-31T08:21:34.344Z,102254.48
2018-12-31T08:24:07.845Z,102250.23
2018-12-31T08:26:41.420Z,102254.91
2018-12-31T08:29:15.019Z,102257.06
2018-12-31T08:31:48.623Z,102264.34
2018-12-31T08:34:22.060Z,102266.47
2018-12-31T08:36:55.598Z,102262.69
2018-12-31T08:39:29.094Z,102247.75
2018-12-31T08:42:02.643Z,102250.30
2018-12-31T08:44:36.618Z,102241.35
2018-12-31T08:47:10.200Z,102242.22
2018-12-31T08:49:43.762Z,102232.85
2018-12-31T08:52:17.346Z,102231.59
2018-12-31T08:54:50.964Z,102237.14
2018-12-31T08:57:24.519Z,102240.58
2018-12-31T08:59:58.086Z,102236.30
2018-12-31T09:02:31.635Z,102243.16
2018-12-31T09:05:05.649Z,102234.67
2018-12-31T09:07:39.212Z,102229.11
2018-12-31T09:10:12.692Z,102231.66
2018-12-31T09:12:46.245Z,102230.81
2018-12-31T09:15:19.688Z,102225.70
2018-12-31T09:17:53.279Z,102220.59
2018-12-31T09:20:28.428Z,102216.32
2018-12-31T09:23:02.111Z,102223.16
2018-12-31T09:25:35.712Z,102224.45
2018-12-31T09:28:09.270Z,102217.63
2018-12-31T09:30:42.850Z,102229.17
2018-12-31T09:33:16.518Z,102225.36
2018-12-31T09:35:50.030Z,102230.88
2018-12-31T09:38:23.679Z,102233.87
2018-12-31T09:40:57.185Z,102247.95
2018-12-31T09:43:30.746Z,102242.43
2018-12-31T09:46:04.258Z,102235.66
2018-12-31T09:48:37.800Z,102228.84
2018-12-31T09:51:11.468Z,102219.87
2018-12-31T09:53:45.084Z,102219.01
2018-12-31T09:56:18.593Z,102216.90
2018-12-31T09:58:52.139Z,102217.75
2018-12-31T10:01:25.685Z,102207.95
2018-12-31T10:03:59.387Z,102207.09
2018-12-31T10:06:32.965Z,102214.39
2018-12-31T10:09:07.006Z,102226.28
2018-12-31T10:11:40.375Z,102217.30
2018-12-31T10:14:13.982Z,102218.17
2018-12-31T10:16:47.559Z,102222.02
2018-12-31T10:19:21.018Z,102219.02
2018-12-31T10:21:54.546Z,102222.89
2018-12-31T10:24:28.248Z,102226.70
2018-12-31T10:27:03.516Z,102226.73
2018-12-31T10:29:37.141Z,102218.66
2018-12-31T10:32:10.816Z,102220.39
2018-12-31T10:34:44.289Z,102214.77
2018-12-31T10:37:17.859Z,102212.25
2018-12-31T10:39:51.400Z,102205.86
2018-12-31T10:42:24.932Z,102201.61
2018-12-31T10:44:58.489Z,102197.75
2018-12-31T10:47:31.993Z,102192.58
2018-12-31T10:50:05.931Z,102181.92
2018-12-31T10:52:39.503Z,102186.17
2018-12-31T10:55:13.109Z,102178.13
2018-12-31T10:57:46.569Z,102177.21
2018-12-31T11:00:21.754Z,102182.34
2018-12-31T11:02:55.297Z,102180.64
2018-12-31T11:05:30.473Z,102179.39
2018-12-31T11:08:03.983Z,102178.98
2018-12-31T11:10:37.448Z,102173.45
2018-12-31T11:13:11.050Z,102164.89
2018-12-31T11:15:44.618Z,102163.17
2018-12-31T11:18:18.133Z,102161.89
2018-12-31T11:20:51.746Z,102159.36
2018-12-31T11:23:25.316Z,102157.64
2018-12-31T11:25:58.875Z,102155.06
2018-12-31T11:28:32.378Z,102161.02
2018-12-31T11:31:05.926Z,102162.31
2018-12-31T11:33:39.515Z,102161.04
2018-12-31T11:36:13.121Z,102155.03
2018-12-31T11:38:46.635Z,102153.34
2018-12-31T11:41:20.118Z,102148.19
2018-12-31T11:43:53.544Z,102159.33
2018-12-31T11:46:27.095Z,102163.56
2018-12-31T11:49:00.522Z,102162.28
2018-12-31T11:51:34.117Z,102165.27
2018-12-31T11:54:07.621Z,102169.11
2018-12-31T11:56:41.091Z,102169.98
2018-12-31T11:59:14.612Z,102164.43
2018-12-31T12:01:48.227Z,102163.13
2018-12-31T12:04:21.649Z,102154.19
2018-12-31T12:06:55.212Z,102149.52
2018-12-31T12:09:28.643Z,102146.06
2018-12-31T12:12:02.196Z,102150.75
2018-12-31T12:14:35.784Z,102134.13
2018-12-31T12:17:09.475Z,102134.53
2018-12-31T12:19:42.968Z,102138.79
2018-12-31T12:22:16.435Z,102137.08
2018-12-31T12:24:50.437Z,102129.36
2018-12-31T12:27:24.163Z,102127.20
2018-12-31T12:29:57.694Z,102127.22
2018-12-31T12:32:31.300Z,102136.59
2018-12-31T12:35:05.105Z,102135.70
2018-12-31T12:37:38.649Z,102130.98
2018-12-31T12:40:12.187Z,102129.70
2018-12-31T12:42:45.737Z,102122.02
2018-12-31T12:45:19.169Z,102126.72
2018-12-31T12:47:52.712Z,102128.42
2018-12-31T12:50:26.218Z,102135.67
2018-12-31T12:52:59.841Z,102131.80
2018-12-31T12:55:33.429Z,102137.38
2018-12-31T12:58:07.134Z,102139.13
2018-12-31T13:00:40.793Z,102138.69
2018-12-31T13:03:14.614Z,102136.56
2018-12-31T13:05:48.049Z,102129.34
2018-12-31T13:08:21.681Z,102133.62
2018-12-31T13:10:55.179Z,102135.33
2018-12-31T13:13:28.813Z,102129.75
2018-12-31T13:16:02.331Z,102129.28
2018-12-31T13:18:35.931Z,102129.69
2018-12-31T13:21:09.445Z,102137.79
2018-12-31T13:23:43.093Z,102138.70
2018-12-31T13:26:16.610Z,102135.69
2018-12-31T13:28:50.229Z,102144.25
2018-12-31T13:31:24.039Z,102140.85
2018-12-31T13:33:57.660Z,102137.38
2018-12-31T13:36:31.172Z,102142.52
2018-12-31T13:39:06.049Z,102143.81
2018-12-31T13:41:39.681Z,102137.86
2018-12-31T13:44:13.217Z,102139.99
2018-12-31T13:46:46.737Z,102137.88
2018-12-31T13:49:20.350Z,102139.17
2018-12-31T13:51:53.800Z,102143.45
2018-12-31T13:54:27.266Z,102143.88
2018-12-31T13:57:00.781Z,102145.16
2018-12-31T13:59:34.551Z,102137.05
2018-12-31T14:02:08.074Z,102135.33
2018-12-31T14:04:41.771Z,102132.34
2018-12-31T14:07:15.296Z,102131.03
2018-12-31T14:09:48.844Z,102126.30
2018-12-31T14:12:22.319Z,102116.05
2018-12-31T14:14:55.949Z,102120.75
2018-12-31T14:17:31.335Z,102115.60
2018-12-31T14:20:06.731Z,102117.74
2018-12-31T14:22:40.164Z,102123.31
2018-12-31T14:25:13.777Z,102121.58
2018-12-31T14:27:47.696Z,102119.96
2018-12-31T14:30:21.268Z,102115.70
2018-12-31T14:32:54.776Z,102116.51
2018-12-31T14:35:28.325Z,102113.09
2018-12-31T14:38:01.879Z,102115.67
2018-12-31T14:40:35.439Z,102117.80
2018-12-31T14:43:08.977Z,102119.91
2018-12-31T14:45:44.488Z,102115.66
2018-12-31T14:48:18.003Z,102120.39
2018-12-31T14:50:51.749Z,102117.80
2018-12-31T14:53:25.180Z,102130.19
2018-12-31T14:55:59.174Z,102126.81
2018-12-31T14:58:32.684Z,102121.68
2018-12-31T15:01:06.308Z,102124.67
2018-12-31T15:03:39.878Z,102118.23
2018-12-31T15:06:13.366Z,102123.79
2018-12-31T15:08:46.938Z,102129.81
2018-12-31T15:11:20.485Z,102122.11
2018-12-31T15:13:54.087Z,102122.97
2018-12-31T15:16:27.655Z,102125.11
2018-12-31T15:19:02.211Z,102117.86
2018-12-31T15:21:35.810Z,102121.28
2018-12-31T15:24:09.503Z,102128.97
2018-12-31T15:26:43.148Z,102120.41
2018-12-31T15:29:16.658Z,102125.98
2018-12-31T15:31:50.219Z,102120.42
2018-12-31T15:34:24.025Z,102133.66
2018-12-31T15:36:57.608Z,102125.56
2018-12-31T15:39:31.115Z,102128.13
2018-12-31T15:42:04.811Z,102128.56
2018-12-31T15:44:38.241Z,102115.32
2018-12-31T15:47:11.895Z,102118.73
2018-12-31T15:49:45.491Z,102126.00
2018-12-31T15:52:19.035Z,102117.91
2018-12-31T15:54:52.482Z,102116.20
2018-12-31T15:57:26.038Z,102121.36
2018-12-31T15:59:59.550Z,102120.49
2018-12-31T16:02:33.134Z,102112.36
2018-12-31T16:05:07.268Z,102111.09
2018-12-31T16:07:45.588Z,102105.53
2018-12-31T16:10:16.325Z,102106.38
2018-12-31T16:12:50.450Z,102103.84
2018-12-31T16:15:24.035Z,102098.70
2018-12-31T16:17:57.673Z,102106.38
2018-12-31T16:20:31.182Z,102103.81
2018-12-31T16:23:04.766Z,102099.13
2018-12-31T16:25:38.286Z,102097.42
2018-12-31T16:28:11.833Z,102098.70
2018-12-31T16:30:45.276Z,102100.84
2018-12-31T16:33:19.556Z,102096.57
2018-12-31T16:35:53.145Z,102089.31
2018-12-31T16:38:26.888Z,102091.42
2018-12-31T16:41:00.400Z,102084.59
2018-12-31T16:43:34.034Z,102082.46
2018-12-31T16:46:07.609Z,102081.62
2018-12-31T16:48:41.150Z,102080.77
2018-12-31T16:51:15.125Z,102072.22
2018-12-31T16:53:48.749Z,102078.66
2018-12-31T16:56:22.199Z,102079.05
2018-12-31T16:58:55.774Z,102081.61
2018-12-31T17:01:29.372Z,102073.50
2018-12-31T17:04:04.185Z,102067.97
2018-12-31T17:06:37.720Z,102071.78
2018-12-31T17:09:11.327Z,102065.39
2018-12-31T17:11:44.848Z,102068.37
2018-12-31T17:14:18.482Z,102068.77
2018-12-31T17:16:52.084Z,102069.65
2018-12-31T17:19:25.551Z,102065.77
2018-12-31T17:21:59.063Z,102070.91
2018-12-31T17:24:32.609Z,102063.64
2018-12-31T17:27:06.210Z,102063.67
2018-12-31T17:29:39.831Z,102066.65
2018-12-31T17:32:13.279Z,102067.08
2018-12-31T17:34:46.738Z,102070.49
2018-12-31T17:37:20.250Z,102073.48
2018-12-31T17:39:54.117Z,102071.39
2018-12-31T17:42:27.552Z,102063.69
2018-12-31T17:45:01.180Z,102073.49
2018-12-31T17:47:34.715Z,102079.89
2018-12-31T17:50:08.245Z,102069.17
2018-12-31T17:52:45.892Z,102070.94
2018-12-31T17:55:19.620Z,102064.53
2018-12-31T17:57:53.359Z,102068.38
2018-12-31T18:00:26.913Z,102063.26
2018-12-31T18:03:00.422Z,102061.11
2018-12-31T18:05:34.052Z,102057.69
2018-12-31T18:08:07.859Z,102062.41
2018-12-31T18:10:41.432Z,102060.66
2018-12-31T18:13:15.019Z,102055.54
2018-12-31T18:15:48.687Z,102058.52
2018-12-31T18:18:22.492Z,102059.80
2018-12-31T18:20:56.128Z,102062.38
2018-12-31T18:23:29.775Z,102067.50
2018-12-31T18:26:03.316Z,102062.77
2018-12-31T18:28:36.819Z,102053.83
2018-12-31T18:31:10.456Z,102058.48
2018-12-31T18:33:43.965Z,102053.81
2018-12-31T18:36:17.553Z,102053.79
2018-12-31T18:39:07.225Z,102049.55
2018-12-31T18:41:40.842Z,102046.63
2018-12-31T18:44:14.473Z,102040.59
2018-12-31T18:46:48.093Z,102044.89
2018-12-31T18:49:21.627Z,102036.73
2018-12-31T18:51:55.298Z,102045.31
2018-12-31T18:54:29.012Z,102041.44
2018-12-31T18:57:02.562Z,102053.81
2018-12-31T18:59:36.143Z,102057.23
2018-12-31T19:02:09.782Z,102054.26
2018-12-31T19:04:43.380Z,102056.81
2018-12-31T19:07:17.107Z,102057.20
2018-12-31T19:09:50.623Z,102059.81
2018-12-31T19:12:24.292Z,102060.25
2018-12-31T19:14:57.811Z,102053.02
2018-12-31T19:17:31.430Z,102045.75
2018-12-31T19:20:06.222Z,102046.60
2018-12-31T19:22:40.000Z,102048.73
2018-12-31T19:25:13.686Z,102046.56
2018-12-31T19:27:47.421Z,102053.81
2018-12-31T19:30:20.961Z,102043.98
2018-12-31T19:32:54.846Z,102057.65
2018-12-31T19:35:28.554Z,102047.46
2018-12-31T19:38:02.219Z,102036.77
2018-12-31T19:40:35.659Z,102039.78
2018-12-31T19:43:09.587Z,102039.77
2018-12-31T19:45:43.175Z,102032.49
2018-12-31T19:48:16.896Z,102027.78
2018-12-31T19:50:50.379Z,102032.47
2018-12-31T19:53:24.105Z,102020.10
2018-12-31T19:55:57.661Z,102019.67
2018-12-31T19:58:31.118Z,102019.27
2018-12-31T20:01:06.323Z,102017.59
2018-12-31T20:03:40.143Z,102012.89
2018-12-31T20:06:13.765Z,102015.88
2018-12-31T20:08:47.300Z,102012.51
2018-12-31T20:11:20.936Z,102018.03
2018-12-31T20:13:54.474Z,102012.46
2018-12-31T20:16:27.984Z,102012.89
2018-12-31T20:19:01.462Z,102008.66
2018-12-31T20:21:35.040Z,101996.70
2018-12-31T20:24:08.581Z,102009.06
2018-12-31T20:26:42.166Z,102008.63
2018-12-31T20:29:15.628Z,102009.06
2018-12-31T20:31:49.067Z,102006.91
2018-12-31T20:34:22.605Z,102005.61
2018-12-31T20:36:56.108Z,101998.39
2018-12-31T20:39:29.735Z,101993.25
2018-12-31T20:42:03.249Z,101990.69
2018-12-31T20:44:36.872Z,101992.83
2018-12-31T20:47:10.404Z,101985.17
2018-12-31T20:49:44.011Z,101981.77
2018-12-31T20:52:17.595Z,101981.75
2018-12-31T20:54:51.132Z,101979.61
2018-12-31T20:57:24.637Z,101984.30
2018-12-31T20:59:58.178Z,101981.75
2018-12-31T21:02:31.729Z,101981.37
2018-12-31T21:05:05.777Z,101965.58
2018-12-31T21:07:39.290Z,101964.30
2018-12-31T21:10:12.850Z,101955.81
2018-12-31T21:12:46.358Z,101958.36
2018-12-31T21:15:19.902Z,101962.17
2018-12-31T21:17:53.474Z,101954.94
2018-12-31T21:20:27.091Z,101948.53
2018-12-31T21:23:01.084Z,101933.58
2018-12-31T21:25:34.767Z,101928.07
2018-12-31T21:28:08.325Z,101930.17
2018-12-31T21:30:41.941Z,101939.98
2018-12-31T21:33:15.837Z,101932.30
2018-12-31T21:35:49.456Z,101927.63
2018-12-31T21:38:23.847Z,101932.76
2018-12-31T21:40:57.398Z,101933.62
2018-12-31T21:43:31.686Z,101920.38
2018-12-31T21:46:05.314Z,101917.41
2018-12-31T21:48:38.853Z,101931.06
2018-12-31T21:51:12.492Z,101923.38
2018-12-31T21:53:59.477Z,101928.94
2018-12-31T21:56:33.034Z,101925.55
2018-12-31T21:59:06.548Z,101937.54
2018-12-31T22:01:40.035Z,101928.58
2018-12-31T22:04:33.729Z,101934.98
2018-12-31T22:07:17.505Z,101929.88
2018-12-31T22:09:51.055Z,101937.13
2018-12-31T22:12:24.614Z,101921.37
2018-12-31T22:14:58.117Z,101914.14
2018-12-31T22:17:32.092Z,101904.75
2018-12-31T22:20:08.585Z,101901.78
2018-12-31T22:22:42.453Z,101888.98
2018-12-31T22:25:16.342Z,101883.86
2018-12-31T22:27:50.367Z,101871.09
2018-12-31T22:30:23.968Z,101879.16
2018-12-31T22:32:57.501Z,101865.51
2018-12-31T22:35:31.161Z,101865.54
2018-12-31T22:38:04.891Z,101856.98
2018-12-31T22:40:38.404Z,101854.42
2018-12-31T22:43:11.872Z,101851.41
2018-12-31T22:45:45.639Z,101849.74
2018-12-31T22:48:19.263Z,101859.58
2018-12-31T22:50:52.765Z,101862.12
2018-12-31T22:53:26.373Z,101852.77
2018-12-31T22:55:59.896Z,101848.91
2018-12-31T22:58:33.495Z,101834.41
2018-12-31T23:01:07.294Z,101834.39
2018-12-31T23:03:40.911Z,101825.47
2018-12-31T23:06:14.422Z,101823.72
2018-12-31T23:08:47.888Z,101824.12
2018-12-31T23:11:21.356Z,101830.95
2018-12-31T23:13:54.918Z,101825.92
2018-12-31T23:16:28.425Z,101828.48
2018-12-31T23:19:01.903Z,101814.43
2018-12-31T23:24:35.468Z,101817.39
2018-12-31T23:27:08.970Z,101806.31
2018-12-31T23:29:42.441Z,101800.74
2018-12-31T23:32:15.966Z,101805.46
2018-12-31T23:34:49.516Z,101793.49
2018-12-31T23:37:23.116Z,101790.11
2018-12-31T23:39:56.612Z,101786.27
2018-12-31T23:42:30.211Z,101774.80
2018-12-31T23:48:03.569Z,101759.45
2018-12-31T23:50:37.047Z,101749.63
2018-12-31T23:53:10.647Z,101752.63
2018-12-31T23:55:44.392Z,101739.88
2018-12-31T23:58:17.903Z,101742.41
